Becker, MN

11:01 AM CST on March 06, 2015 (GMT -0600)
Eagle Lake | Change Station
CLOSE
Current Station
Personal Weather Station
Location: Big Lake, MN
Elevation: 961 ft
Nearby Weather Stations

Elev 961 ft 45.39 °N, 93.75 °W | Updated 15 minutes ago

Clear
Clear
28.9 °F
Feels Like 22 °F
N
6.8
Wind Variable Wind from NW

Today
High -- | Low -- °F
--% Chance of Precip.
Yesterday
High -- | Low -- °F
Precip. -- in
6:44 AM 6:08 PM
Full, 99% visible
Pressure 30.05 in
Visibility 10.0 miles
Clouds Clear
Windchill 22 °F
Dew Point 16 °F
Humidity 59%
Rainfall in
Snow Depth Not available.
UV 4 out of 12
Pollen .40 out of 12
Air Quality Not available.
Flu Activity Not available.
METAR KMGG 061656Z AUTO 28005KT 10SM CLR M01/M08 A3005 RMK AO2 T10101078

More Conditions Fewer Conditions

Pressure 30.05 in
Visibility 10.0 miles
Clouds Clear
Windchill 22 °F
Dew Point 16 °F
Humidity 59%
Rainfall in
Snow Depth Not available.
UV 4 out of 12
Pollen .40 out of 12
Air Quality Not available.
Flu Activity Not available.
METAR KMGG 061656Z AUTO 28005KT 10SM CLR M01/M08 A3005 RMK AO2 T10101078

More Conditions Fewer Conditions

10-Day Weather Forecast

Almanac

Astronomy

Mar. 06, 2015 Rise Set
Actual Time
Civil Twilight
Nautical Twilight
Astronomical Twilight
Moon
Length of Visible Light
Length of Day
Tomorrow will be .
, % of the Moon is Illuminated

Today's Extremes

State Highs State Lows

Community

WunderPhotos

Upload Photos

1,803,337 photos uploaded!

WunderBlogs® & News

Nearby

Air Quality

  Air Quality AQ Index Pollutant
Not available.

Snow Depth

Station Depth Elevation

Earthquake Activity

City Distance Mag. Time & Date
Minimum magnitude displayed is 2.5.

Coastal Water Temperatures

Place Temperature

Nearby Weather Stations